Terminal Aerodrome Forecast
Issued by NWS

Home | Current Version | Previous Version | Text Only | Print | Product List | Glossary On
Versions: 1 2 3 4 5 6 7 8 9 10 11 12 13 14 15
000
FTUS45 KBOI 200520
TAFBKE
TAF
KBKE 200520Z 2006/2106 33012KT P6SM SCT200
     FM201200 33006KT P6SM SCT200
     FM210200 VRB05KT P6SM SCT200=

USA.gov is the U.S. government's official web portal to all federal, state and local government web resources and services.